Time;durP1;ratioP1;P1;durP2;ratioP2;P2;SDS_P1;SDS_P2;PMS_P1;PMS_P2;Temp;Humidity;BMP_temperature;BMP_pressure;BME280_temperature;BME280_humidity;BME280_pressure;Samples;Min_cycle;Max_cycle;Signal;HPM_P1;HPM_P2
2021/09/13 00:01:09;;;;;;;;;;;21.10;75.90;;;;;;5032772;28;1887;-76
2021/09/13 00:03:35;;;;;;;;;;;21.10;75.90;;;;;;5028493;28;1322;-78
2021/09/13 00:06:00;;;;;;;;;;;21.10;76.00;;;;;;5034444;28;1221;-76
2021/09/13 00:08:26;;;;;;;;;;;21.10;76.00;;;;;;5039474;28;1144;-76
2021/09/13 00:10:51;;;;;;;;;;;21.10;75.90;;;;;;5044867;28;1440;-76
2021/09/13 00:13:17;;;;;;;;;;;21.10;76.00;;;;;;5032439;28;1244;-75
2021/09/13 00:15:42;;;;;;;;;;;21.10;76.00;;;;;;5002736;28;1402;-76
2021/09/13 00:18:08;;;;;;;;;;;21.10;76.00;;;;;;5028316;28;1121;-76
2021/09/13 00:20:33;;;;;;;;;;;21.10;75.90;;;;;;5027299;28;1961;-76
2021/09/13 00:22:58;;;;;;;;;;;21.10;76.00;;;;;;5014817;28;1335;-76
2021/09/13 00:25:24;;;;;;;;;;;21.10;76.00;;;;;;5023993;28;1354;-76
2021/09/13 00:27:49;;;;;;;;;;;21.10;76.00;;;;;;5032029;28;1084;-76
2021/09/13 00:30:15;;;;;;;;;;;21.10;76.00;;;;;;5022472;28;1061;-76
2021/09/13 00:32:40;;;;;;;;;;;21.10;76.00;;;;;;5021479;28;1323;-76
2021/09/13 00:35:06;;;;;;;;;;;21.10;76.00;;;;;;5027056;28;1080;-76
2021/09/13 00:37:31;;;;;;;;;;;21.10;76.00;;;;;;5027719;28;1368;-76
2021/09/13 00:39:57;;;;;;;;;;;21.10;76.00;;;;;;5022396;28;1081;-76
2021/09/13 00:42:22;;;;;;;;;;;21.10;76.00;;;;;;5020897;28;1964;-76
2021/09/13 00:44:48;;;;;;;;;;;21.10;76.00;;;;;;5027150;28;1139;-72
2021/09/13 00:47:13;;;;;;;;;;;21.10;76.00;;;;;;5045264;28;1177;-75
2021/09/13 00:49:38;;;;;;;;;;;21.10;76.00;;;;;;5030671;28;1327;-75
2021/09/13 00:52:04;;;;;;;;;;;21.10;76.00;;;;;;5045440;28;1394;-73
2021/09/13 00:54:30;;;;;;;;;;;21.10;75.90;;;;;;5014740;28;1095;-73
2021/09/13 00:56:55;;;;;;;;;;;21.10;76.00;;;;;;5022089;28;1417;-73
2021/09/13 00:59:20;;;;;;;;;;;21.10;76.00;;;;;;5055271;28;1072;-73
2021/09/13 01:01:46;;;;;;;;;;;21.10;76.00;;;;;;5038174;28;1911;-73
2021/09/13 01:04:11;;;;;;;;;;;21.10;76.00;;;;;;5031907;28;1415;-73
2021/09/13 01:06:37;;;;;;;;;;;21.10;76.00;;;;;;5030170;28;1418;-73
2021/09/13 01:09:02;;;;;;;;;;;21.10;76.00;;;;;;5042164;28;942;-73
2021/09/13 01:11:27;;;;;;;;;;;21.10;76.00;;;;;;5044028;28;1143;-73
2021/09/13 01:13:53;;;;;;;;;;;21.10;76.00;;;;;;5022797;28;1108;-73
2021/09/13 01:16:18;;;;;;;;;;;21.10;76.00;;;;;;5025798;28;1264;-73
2021/09/13 01:18:44;;;;;;;;;;;21.10;76.00;;;;;;5049000;28;1046;-73
2021/09/13 01:21:09;;;;;;;;;;;21.10;76.00;;;;;;5035599;28;1890;-73
2021/09/13 01:23:35;;;;;;;;;;;21.10;76.10;;;;;;5032906;28;1291;-73
2021/09/13 01:26:00;;;;;;;;;;;21.10;76.00;;;;;;5044003;28;1257;-75
2021/09/13 01:28:26;;;;;;;;;;;21.10;76.00;;;;;;5035205;28;1155;-75
2021/09/13 01:30:51;;;;;;;;;;;21.10;76.00;;;;;;5017930;28;1120;-75
2021/09/13 01:33:17;;;;;;;;;;;21.10;76.00;;;;;;5048513;28;1068;-75
2021/09/13 01:35:42;;;;;;;;;;;21.10;76.00;;;;;;5009926;28;1295;-74
2021/09/13 01:38:08;;;;;;;;;;;21.10;76.10;;;;;;5035240;28;1128;-75
2021/09/13 01:40:33;;;;;;;;;;;21.10;76.00;;;;;;5017503;28;1902;-75
2021/09/13 01:42:59;;;;;;;;;;;21.10;76.00;;;;;;5035553;28;1080;-74
2021/09/13 01:45:25;;;;;;;;;;;21.10;76.00;;;;;;5017349;28;1263;-74
2021/09/13 01:47:50;;;;;;;;;;;21.10;76.00;;;;;;5034832;28;1088;-74
2021/09/13 01:50:16;;;;;;;;;;;21.10;76.00;;;;;;5035166;28;1225;-75
2021/09/13 01:52:41;;;;;;;;;;;21.10;76.00;;;;;;5035695;28;1340;-75
2021/09/13 01:55:07;;;;;;;;;;;21.10;76.00;;;;;;5016393;28;1497;-74
2021/09/13 01:57:32;;;;;;;;;;;21.10;76.10;;;;;;5034413;28;1431;-75
2021/09/13 01:59:58;;;;;;;;;;;21.10;76.80;;;;;;5028479;28;1068;-75
2021/09/13 02:02:23;;;;;;;;;;;21.10;76.00;;;;;;5041565;28;1906;-74
2021/09/13 02:04:48;;;;;;;;;;;21.10;76.00;;;;;;5025841;28;1064;-75
2021/09/13 02:07:14;;;;;;;;;;;21.10;76.00;;;;;;5033241;28;1365;-75
2021/09/13 02:09:39;;;;;;;;;;;21.10;76.10;;;;;;5027442;28;1073;-75
2021/09/13 02:12:05;;;;;;;;;;;21.10;76.00;;;;;;5054453;28;1372;-75
2021/09/13 02:14:30;;;;;;;;;;;21.10;76.00;;;;;;5036654;28;1260;-75
2021/09/13 02:16:56;;;;;;;;;;;21.10;76.10;;;;;;5031902;28;1357;-75
2021/09/13 02:19:21;;;;;;;;;;;21.10;76.00;;;;;;5027504;28;1139;-75
2021/09/13 02:21:47;;;;;;;;;;;21.10;76.10;;;;;;5023332;28;1954;-75
2021/09/13 02:24:12;;;;;;;;;;;21.10;76.00;;;;;;5019758;28;1105;-75
2021/09/13 02:26:37;;;;;;;;;;;21.10;76.10;;;;;;5049743;28;1279;-75
2021/09/13 02:29:03;;;;;;;;;;;21.10;76.10;;;;;;5034306;28;1252;-75
2021/09/13 02:31:29;;;;;;;;;;;21.10;76.10;;;;;;5047551;28;1100;-75
2021/09/13 02:33:54;;;;;;;;;;;21.10;76.10;;;;;;5026801;28;1262;-73
2021/09/13 02:36:19;;;;;;;;;;;21.10;76.10;;;;;;5032468;28;1378;-75
2021/09/13 02:38:45;;;;;;;;;;;21.10;76.10;;;;;;5026732;28;1316;-74
2021/09/13 02:41:10;;;;;;;;;;;21.10;76.10;;;;;;5019353;28;1965;-74
2021/09/13 02:43:36;;;;;;;;;;;21.10;76.10;;;;;;5034006;28;1056;-74
2021/09/13 02:46:01;;;;;;;;;;;21.10;76.10;;;;;;5047089;28;1247;-74
2021/09/13 02:48:27;;;;;;;;;;;21.10;76.10;;;;;;5016249;28;1247;-74
2021/09/13 02:50:52;;;;;;;;;;;21.10;76.10;;;;;;4999897;28;1307;-75
2021/09/13 02:53:17;;;;;;;;;;;21.10;76.10;;;;;;5033853;28;1300;-73
2021/09/13 02:55:43;;;;;;;;;;;21.10;76.10;;;;;;5026388;28;1217;-73
2021/09/13 02:58:08;;;;;;;;;;;21.10;76.10;;;;;;5026117;28;1124;-75
2021/09/13 03:00:34;;;;;;;;;;;21.10;76.10;;;;;;5015885;28;1902;-75
2021/09/13 03:02:59;;;;;;;;;;;21.10;76.10;;;;;;5033937;28;1263;-75
2021/09/13 03:05:25;;;;;;;;;;;21.10;76.10;;;;;;5015843;28;1378;-76
2021/09/13 03:07:50;;;;;;;;;;;21.10;76.10;;;;;;5016023;28;1195;-75
2021/09/13 03:10:15;;;;;;;;;;;21.10;76.10;;;;;;5028879;28;1237;-75
2021/09/13 03:12:41;;;;;;;;;;;21.10;76.90;;;;;;5026698;28;1315;-74
2021/09/13 03:15:07;;;;;;;;;;;21.00;76.00;;;;;;5015774;28;1331;-74
2021/09/13 03:17:32;;;;;;;;;;;21.10;76.10;;;;;;5033642;28;1306;-74
2021/09/13 03:19:58;;;;;;;;;;;21.10;76.10;;;;;;5035176;28;1109;-73
2021/09/13 03:22:23;;;;;;;;;;;21.10;76.10;;;;;;5044786;28;1870;-74
2021/09/13 03:24:49;;;;;;;;;;;21.10;76.10;;;;;;5023415;28;1084;-76
2021/09/13 03:27:14;;;;;;;;;;;21.10;76.10;;;;;;5033725;28;1310;-74
2021/09/13 03:29:40;;;;;;;;;;;21.10;76.10;;;;;;5033358;28;1160;-73
2021/09/13 03:32:05;;;;;;;;;;;21.10;76.10;;;;;;5033497;28;1139;-73
2021/09/13 03:34:31;;;;;;;;;;;21.10;76.10;;;;;;5033422;28;1276;-74
2021/09/13 03:36:59;;;;;;;;;;;21.10;76.10;;;;;;5033062;28;1272;-73
2021/09/13 03:39:24;;;;;;;;;;;21.10;76.10;;;;;;5034307;28;1292;-77
2021/09/13 03:41:50;;;;;;;;;;;21.10;76.10;;;;;;5005419;28;1875;-76
2021/09/13 03:44:15;;;;;;;;;;;21.10;76.10;;;;;;5017185;28;1336;-76
2021/09/13 03:46:40;;;;;;;;;;;21.10;76.10;;;;;;5034529;28;1195;-77
2021/09/13 03:49:06;;;;;;;;;;;21.00;76.00;;;;;;5017513;28;1263;-77
2021/09/13 03:51:32;;;;;;;;;;;21.10;76.10;;;;;;5035645;28;1116;-76
2021/09/13 03:53:57;;;;;;;;;;;21.10;76.10;;;;;;5048734;28;1128;-76
2021/09/13 03:56:23;;;;;;;;;;;21.10;76.10;;;;;;5043020;28;1330;-77
2021/09/13 03:58:48;;;;;;;;;;;21.10;76.20;;;;;;5037373;28;1738;-76
2021/09/13 04:01:14;;;;;;;;;;;21.00;76.10;;;;;;5054090;28;1965;-75
2021/09/13 04:03:46;;;;;;;;;;;21.10;76.10;;;;;;5052705;28;1378;-76
2021/09/13 04:06:20;;;;;;;;;;;21.10;76.20;;;;;;5052508;28;1306;-75
2021/09/13 04:11:20;;;;;;;;;;;21.10;76.10;;;;;;5053014;28;1056;-75
2021/09/13 04:13:46;;;;;;;;;;;21.10;76.10;;;;;;5035833;28;1108;-75
2021/09/13 04:16:11;;;;;;;;;;;21.10;76.10;;;;;;5052255;28;1274;-76
2021/09/13 04:18:37;;;;;;;;;;;21.10;76.10;;;;;;5034711;28;1119;-75
2021/09/13 04:21:02;;;;;;;;;;;21.10;76.10;;;;;;5052570;28;1957;-74
2021/09/13 04:23:27;;;;;;;;;;;21.00;76.10;;;;;;5051456;28;1087;-76
2021/09/13 04:25:53;;;;;;;;;;;21.10;76.20;;;;;;5024395;28;1675;-75
2021/09/13 04:28:18;;;;;;;;;;;21.10;76.10;;;;;;5011858;28;1740;-75
2021/09/13 04:30:44;;;;;;;;;;;21.00;76.80;;;;;;5022031;28;1290;-76
2021/09/13 04:33:09;;;;;;;;;;;21.00;76.00;;;;;;5002227;28;1292;-75
2021/09/13 04:35:35;;;;;;;;;;;21.10;76.00;;;;;;5018685;28;1383;-75
2021/09/13 04:38:00;;;;;;;;;;;21.00;76.00;;;;;;5018663;28;1314;-76
2021/09/13 04:40:25;;;;;;;;;;;21.10;76.10;;;;;;5036287;28;1973;-76
2021/09/13 04:42:51;;;;;;;;;;;21.10;76.10;;;;;;5018852;28;1192;-75
2021/09/13 04:45:16;;;;;;;;;;;21.10;76.10;;;;;;5018430;28;1371;-76
2021/09/13 04:47:42;;;;;;;;;;;21.10;76.10;;;;;;5036068;28;1112;-75
2021/09/13 04:50:07;;;;;;;;;;;21.10;76.10;;;;;;5018488;28;1269;-76
2021/09/13 04:52:33;;;;;;;;;;;21.00;76.00;;;;;;5053136;28;1073;-76
2021/09/13 04:54:58;;;;;;;;;;;21.10;76.10;;;;;;5035212;28;1073;-76
2021/09/13 04:57:24;;;;;;;;;;;21.00;76.00;;;;;;5018032;28;1370;-75
2021/09/13 04:59:49;;;;;;;;;;;21.10;76.10;;;;;;5036034;28;1371;-76
2021/09/13 05:02:15;;;;;;;;;;;21.00;76.10;;;;;;5035802;28;1953;-76
2021/09/13 05:04:40;;;;;;;;;;;21.00;76.10;;;;;;5035723;28;1147;-75
2021/09/13 05:07:06;;;;;;;;;;;21.10;76.10;;;;;;5017580;28;1286;-75
2021/09/13 05:09:32;;;;;;;;;;;21.00;76.10;;;;;;5017964;28;1498;-74
2021/09/13 05:11:57;;;;;;;;;;;21.10;76.20;;;;;;5017971;28;1486;-76
2021/09/13 05:14:23;;;;;;;;;;;21.10;76.10;;;;;;5035849;28;1061;-75
2021/09/13 05:16:48;;;;;;;;;;;21.00;76.10;;;;;;5035123;28;1270;-75
2021/09/13 05:19:14;;;;;;;;;;;21.10;76.20;;;;;;5035148;28;1072;-76
2021/09/13 05:21:40;;;;;;;;;;;21.10;76.20;;;;;;5018037;28;1965;-76
2021/09/13 05:24:05;;;;;;;;;;;21.10;76.20;;;;;;5041601;28;1037;-76
2021/09/13 05:26:31;;;;;;;;;;;21.10;76.20;;;;;;5024080;28;1347;-74
2021/09/13 05:28:56;;;;;;;;;;;21.00;76.10;;;;;;5055411;28;1443;-75
2021/09/13 05:31:22;;;;;;;;;;;21.10;76.20;;;;;;5055384;28;1386;-76
2021/09/13 05:33:47;;;;;;;;;;;21.00;76.10;;;;;;5055495;28;1071;-75
2021/09/13 05:36:13;;;;;;;;;;;21.10;76.10;;;;;;5036870;28;1359;-76
2021/09/13 05:38:38;;;;;;;;;;;21.00;76.10;;;;;;5055286;28;1126;-75
2021/09/13 05:41:03;;;;;;;;;;;21.00;76.10;;;;;;5055059;28;1966;-75
2021/09/13 05:43:29;;;;;;;;;;;21.00;76.10;;;;;;5054034;28;1257;-76
2021/09/13 05:45:54;;;;;;;;;;;21.00;76.10;;;;;;5036832;28;1199;-76
2021/09/13 05:48:20;;;;;;;;;;;21.10;76.20;;;;;;5037319;28;1290;-75
2021/09/13 05:50:46;;;;;;;;;;;21.10;76.10;;;;;;5052129;28;1327;-75
2021/09/13 05:53:11;;;;;;;;;;;21.00;76.10;;;;;;5017652;28;1303;-75
2021/09/13 05:55:42;;;;;;;;;;;21.00;76.10;;;;;;5040539;28;1282;-76
2021/09/13 05:58:07;;;;;;;;;;;21.10;76.20;;;;;;5045109;28;1049;-75
2021/09/13 06:00:33;;;;;;;;;;;21.10;76.20;;;;;;5054430;28;1902;-76
2021/09/13 06:02:59;;;;;;;;;;;21.10;76.20;;;;;;5037243;28;1151;-76
2021/09/13 06:05:24;;;;;;;;;;;21.10;76.20;;;;;;5054370;28;1502;-75
2021/09/13 06:07:50;;;;;;;;;;;21.10;76.20;;;;;;5054668;28;1338;-75
2021/09/13 06:10:15;;;;;;;;;;;21.10;76.20;;;;;;5036689;28;1151;-76
2021/09/13 06:12:40;;;;;;;;;;;21.00;76.10;;;;;;5036808;28;1120;-75
2021/09/13 06:15:06;;;;;;;;;;;21.10;76.20;;;;;;5054488;28;1203;-75
2021/09/13 06:17:32;;;;;;;;;;;21.00;76.10;;;;;;5054195;28;1294;-74
2021/09/13 06:19:57;;;;;;;;;;;21.10;76.20;;;;;;5036565;28;1096;-74
2021/09/13 06:22:23;;;;;;;;;;;21.10;76.10;;;;;;5055600;28;1953;-74
2021/09/13 06:24:48;;;;;;;;;;;21.10;76.10;;;;;;5043990;28;1155;-75
2021/09/13 06:27:14;;;;;;;;;;;21.00;76.10;;;;;;5001525;28;1278;-75
2021/09/13 06:29:40;;;;;;;;;;;21.10;76.20;;;;;;5017761;28;1231;-74
2021/09/13 06:32:06;;;;;;;;;;;21.00;76.20;;;;;;5027715;28;1092;-75
2021/09/13 06:34:31;;;;;;;;;;;21.10;76.20;;;;;;5024695;28;1085;-76
2021/09/13 06:36:57;;;;;;;;;;;21.10;76.20;;;;;;5055524;28;1290;-75
2021/09/13 06:39:22;;;;;;;;;;;21.10;76.10;;;;;;5037971;28;1407;-75
2021/09/13 06:41:47;;;;;;;;;;;21.10;76.10;;;;;;5038173;28;1922;-74
2021/09/13 06:44:15;;;;;;;;;;;21.10;76.00;;;;;;5038092;28;1111;-76
2021/09/13 06:46:43;;;;;;;;;;;21.00;76.00;;;;;;5050541;28;1669;-73
2021/09/13 06:49:09;;;;;;;;;;;21.10;76.00;;;;;;5037231;28;1937;-72
2021/09/13 06:51:34;;;;;;;;;;;21.10;76.00;;;;;;5041500;28;1283;-72
2021/09/13 06:54:00;;;;;;;;;;;21.00;75.90;;;;;;5042136;28;1334;-73
2021/09/13 06:56:25;;;;;;;;;;;21.00;76.00;;;;;;5039210;28;1265;-77
2021/09/13 06:58:52;;;;;;;;;;;21.00;75.90;;;;;;5034694;28;1099;-77
2021/09/13 07:01:18;;;;;;;;;;;21.10;76.00;;;;;;5027433;28;1953;-77
2021/09/13 07:03:43;;;;;;;;;;;21.00;75.90;;;;;;5033799;28;1057;-75
2021/09/13 07:06:09;;;;;;;;;;;21.00;75.80;;;;;;5035481;28;1365;-76
2021/09/13 07:08:34;;;;;;;;;;;21.10;75.90;;;;;;5038636;28;1120;-77
2021/09/13 07:11:01;;;;;;;;;;;21.10;75.80;;;;;;5033713;28;1123;-77
2021/09/13 07:13:27;;;;;;;;;;;21.10;75.80;;;;;;5047152;28;1144;-76
2021/09/13 07:15:52;;;;;;;;;;;21.00;75.70;;;;;;5033102;28;1351;-77
2021/09/13 07:18:18;;;;;;;;;;;21.10;75.80;;;;;;5046695;28;1084;-77
2021/09/13 07:20:44;;;;;;;;;;;21.00;75.70;;;;;;5008505;28;1970;-77
2021/09/13 07:23:09;;;;;;;;;;;21.10;75.70;;;;;;5037885;28;1106;-76
2021/09/13 07:25:34;;;;;;;;;;;21.00;75.70;;;;;;5024749;28;1296;-77
2021/09/13 07:28:00;;;;;;;;;;;21.10;75.70;;;;;;5033859;28;1202;-77
2021/09/13 07:30:26;;;;;;;;;;;21.00;75.60;;;;;;5027260;28;1069;-77
2021/09/13 07:32:52;;;;;;;;;;;21.10;75.70;;;;;;5046527;28;1124;-77
2021/09/13 07:35:17;;;;;;;;;;;21.10;75.60;;;;;;5023593;28;1257;-77
2021/09/13 07:37:43;;;;;;;;;;;21.00;75.40;;;;;;5034964;28;1197;-77
2021/09/13 07:40:08;;;;;;;;;;;21.00;76.00;;;;;;5045177;28;1060;-76
2021/09/13 07:42:34;;;;;;;;;;;21.00;75.40;;;;;;5028790;28;1948;-77
2021/09/13 07:44:59;;;;;;;;;;;21.00;75.30;;;;;;5040924;28;1056;-77
2021/09/13 07:47:25;;;;;;;;;;;21.00;75.30;;;;;;5039046;28;1248;-77
2021/09/13 07:49:50;;;;;;;;;;;21.00;75.30;;;;;;5026887;28;1222;-77
2021/09/13 07:52:16;;;;;;;;;;;21.00;75.30;;;;;;5046360;28;1123;-77
2021/09/13 07:54:42;;;;;;;;;;;21.00;75.30;;;;;;5034584;28;1068;-77
2021/09/13 07:57:07;;;;;;;;;;;21.00;75.40;;;;;;5028427;28;1257;-77
2021/09/13 07:59:33;;;;;;;;;;;21.10;75.50;;;;;;5023240;28;1068;-77
2021/09/13 08:01:58;;;;;;;;;;;21.10;75.50;;;;;;5034558;28;1906;-76
2021/09/13 08:04:23;;;;;;;;;;;21.10;75.50;;;;;;5035130;28;1084;-77
2021/09/13 08:06:49;;;;;;;;;;;21.00;75.50;;;;;;5020542;28;1459;-77
2021/09/13 08:09:14;;;;;;;;;;;21.00;75.50;;;;;;5044982;28;1059;-77
2021/09/13 08:11:40;;;;;;;;;;;21.10;75.70;;;;;;5046392;28;1150;-77
2021/09/13 08:14:05;;;;;;;;;;;21.10;75.70;;;;;;5022785;28;1598;-77
2021/09/13 08:16:31;;;;;;;;;;;21.10;75.70;;;;;;5020895;28;1257;-77
2021/09/13 08:18:58;;;;;;;;;;;21.00;75.60;;;;;;5027636;28;1060;-77
2021/09/13 08:21:23;;;;;;;;;;;21.10;75.70;;;;;;5045947;28;1906;-77
2021/09/13 08:23:49;;;;;;;;;;;21.10;75.80;;;;;;5002762;28;1280;-77
2021/09/13 08:26:16;;;;;;;;;;;21.10;75.80;;;;;;5045549;28;1252;-77
2021/09/13 08:28:42;;;;;;;;;;;21.10;75.90;;;;;;5022424;28;1180;-77
2021/09/13 08:31:07;;;;;;;;;;;21.10;75.70;;;;;;5038758;28;1221;-77
2021/09/13 08:33:34;;;;;;;;;;;21.10;75.60;;;;;;5045360;28;1123;-77
2021/09/13 08:36:00;;;;;;;;;;;21.10;75.60;;;;;;5011293;28;1339;-76
2021/09/13 08:38:25;;;;;;;;;;;21.10;75.60;;;;;;5014992;28;1305;-76
2021/09/13 08:40:51;;;;;;;;;;;21.10;75.60;;;;;;5032975;28;1977;-76
2021/09/13 08:43:17;;;;;;;;;;;21.10;75.60;;;;;;5045133;28;1084;-76
2021/09/13 08:50:43;;;;;;;;;;;21.10;75.70;;;;;;5038915;28;1285;-76
2021/09/13 08:53:11;;;;;;;;;;;21.10;75.70;;;;;;5027101;28;1037;-77
2021/09/13 08:55:36;;;;;;;;;;;21.10;75.70;;;;;;5024394;28;1365;-77
2021/09/13 08:58:02;;;;;;;;;;;21.10;75.70;;;;;;5049720;28;1857;-77
2021/09/13 09:00:29;;;;;;;;;;;21.10;75.70;;;;;;5043293;28;2069;-76
2021/09/13 09:02:54;;;;;;;;;;;21.10;75.70;;;;;;5041862;28;2183;-77
2021/09/13 09:05:20;;;;;;;;;;;21.10;75.70;;;;;;5026965;28;1272;-78
2021/09/13 09:07:46;;;;;;;;;;;21.10;75.70;;;;;;5015919;28;1144;-78
2021/09/13 09:10:13;;;;;;;;;;;21.10;75.70;;;;;;5031192;28;1335;-78
2021/09/13 09:12:57;;;;;;;;;;;21.10;75.60;;;;;;5045310;28;1056;-78
2021/09/13 09:15:23;;;;;;;;;;;21.10;75.10;;;;;;5031090;28;1290;-78
2021/09/13 09:17:52;;;;;;;;;;;21.10;74.70;;;;;;5027397;28;1207;-78
2021/09/13 09:20:17;;;;;;;;;;;21.10;74.00;;;;;;5025301;28;1160;-78
2021/09/13 09:22:43;;;;;;;;;;;21.00;74.00;;;;;;5045320;28;1886;-76
2021/09/13 09:25:27;;;;;;;;;;;21.00;73.60;;;;;;5014830;28;1176;-77
2021/09/13 09:27:56;;;;;;;;;;;21.00;73.50;;;;;;5033002;23;2548;-65
2021/09/13 09:30:22;;;;;;;;;;;21.00;73.20;;;;;;5024484;28;974;-66
2021/09/13 09:33:01;;;;;;;;;;;21.00;73.00;;;;;;5017863;28;1295;-65
2021/09/13 09:35:26;;;;;;;;;;;21.00;72.50;;;;;;5035369;28;1269;-65
2021/09/13 09:37:51;;;;;;;;;;;21.00;72.20;;;;;;5017274;28;1367;-65
2021/09/13 09:40:27;;;;;;;;;;;21.00;71.90;;;;;;5035334;28;1281;-65
2021/09/13 09:42:53;;;;;;;;;;;21.00;71.90;;;;;;5017639;28;1416;-65
2021/09/13 09:45:18;;;;;;;;;;;21.00;72.10;;;;;;5017525;28;1085;-65
2021/09/13 09:47:44;;;;;;;;;;;21.00;72.40;;;;;;5034792;28;1282;-65
2021/09/13 09:50:09;;;;;;;;;;;21.00;72.60;;;;;;5035325;28;1182;-65
2021/09/13 09:52:36;;;;;;;;;;;21.00;72.80;;;;;;5034874;28;1526;-66
2021/09/13 09:55:08;;;;;;;;;;;21.00;73.00;;;;;;5031895;28;1317;-65
2021/09/13 09:57:33;;;;;;;;;;;21.10;73.10;;;;;;5014669;28;1388;-65
2021/09/13 09:59:59;;;;;;;;;;;21.00;73.20;;;;;;5035176;28;1240;-65
2021/09/13 10:02:27;;;;;;;;;;;21.10;73.40;;;;;;5034880;28;1953;-65
2021/09/13 10:04:54;;;;;;;;;;;21.10;73.40;;;;;;5034835;28;1261;-65
2021/09/13 10:07:20;;;;;;;;;;;21.10;73.50;;;;;;5034495;28;1327;-65
2021/09/13 10:09:45;;;;;;;;;;;21.10;73.50;;;;;;5017195;28;1274;-65
2021/09/13 10:12:11;;;;;;;;;;;21.10;73.70;;;;;;5017144;28;1370;-65
2021/09/13 10:14:37;;;;;;;;;;;21.10;73.80;;;;;;5034810;28;1205;-65
2021/09/13 10:17:04;;;;;;;;;;;21.10;73.90;;;;;;5034677;28;1306;-65
2021/09/13 10:19:30;;;;;;;;;;;21.10;74.00;;;;;;5034431;28;1092;-66
2021/09/13 10:21:55;;;;;;;;;;;21.10;74.20;;;;;;5034489;28;1902;-65
2021/09/13 10:24:25;;;;;;;;;;;21.10;74.40;;;;;;5026519;28;1272;-65
2021/09/13 10:26:51;;;;;;;;;;;21.10;74.50;;;;;;5032781;28;1333;-65
2021/09/13 10:29:18;;;;;;;;;;;21.10;74.70;;;;;;5016427;28;1291;-65
2021/09/13 10:31:45;;;;;;;;;;;21.10;74.70;;;;;;5032820;28;1849;-65
2021/09/13 10:34:17;;;;;;;;;;;21.10;74.90;;;;;;5030339;28;1165;-65
2021/09/13 10:37:01;;;;;;;;;;;21.10;75.00;;;;;;5010585;28;1351;-65
2021/09/13 10:39:45;;;;;;;;;;;21.10;75.20;;;;;;5033891;28;1176;-65
2021/09/13 10:42:25;;;;;;;;;;;21.10;75.20;;;;;;5034093;28;1894;-65
2021/09/13 10:45:02;;;;;;;;;;;21.10;75.50;;;;;;5034104;28;1419;-66
2021/09/13 10:47:28;;;;;;;;;;;21.10;75.50;;;;;;5033601;28;1348;-65
2021/09/13 10:50:13;;;;;;;;;;;21.10;75.50;;;;;;5034402;28;1285;-65
2021/09/13 10:52:38;;;;;;;;;;;21.10;75.30;;;;;;5016238;28;1262;-66
2021/09/13 10:55:11;;;;;;;;;;;21.10;75.40;;;;;;5033969;28;1215;-65
2021/09/13 10:57:55;;;;;;;;;;;21.10;75.50;;;;;;5033680;28;1296;-65
2021/09/13 11:00:39;;;;;;;;;;;21.10;75.60;;;;;;5033826;28;1310;-65
2021/09/13 11:03:22;;;;;;;;;;;21.10;75.80;;;;;;5033905;28;1332;-65
2021/09/13 11:08:33;;;;;;;;;;;21.10;75.40;;;;;;5033720;28;1309;-65
2021/09/13 11:10:58;;;;;;;;;;;21.10;75.30;;;;;;5015967;28;1328;-66
2021/09/13 11:13:24;;;;;;;;;;;21.10;75.20;;;;;;5033527;28;1278;-66
2021/09/13 11:15:49;;;;;;;;;;;21.10;75.20;;;;;;5032970;28;1286;-65
2021/09/13 11:18:34;;;;;;;;;;;21.10;75.40;;;;;;5033561;28;1323;-65
2021/09/13 11:21:13;;;;;;;;;;;21.10;75.30;;;;;;5032581;28;1997;-65
2021/09/13 11:23:38;;;;;;;;;;;21.10;75.40;;;;;;5030263;28;1218;-65
2021/09/13 11:26:03;;;;;;;;;;;21.10;75.30;;;;;;5024382;28;1473;-66
2021/09/13 11:28:29;;;;;;;;;;;21.10;75.40;;;;;;5033090;28;1409;-65
2021/09/13 11:30:54;;;;;;;;;;;21.10;75.40;;;;;;5033267;28;1610;-65
2021/09/13 11:33:20;;;;;;;;;;;21.10;75.40;;;;;;5031963;28;1697;-65
2021/09/13 11:35:45;;;;;;;;;;;21.10;75.40;;;;;;5030957;28;1334;-66
2021/09/13 11:38:11;;;;;;;;;;;21.10;75.60;;;;;;5031600;28;1097;-66
2021/09/13 11:40:36;;;;;;;;;;;21.10;75.60;;;;;;5031415;28;1969;-66
2021/09/13 11:43:08;;;;;;;;;;;21.10;75.70;;;;;;5031974;28;1319;-66
2021/09/13 11:45:34;;;;;;;;;;;21.10;75.90;;;;;;5032170;28;1029;-67
2021/09/13 11:48:06;;;;;;;;;;;21.10;76.20;;;;;;5032537;28;1350;-67
2021/09/13 11:50:31;;;;;;;;;;;21.10;75.80;;;;;;5032452;28;1166;-67
2021/09/13 11:52:57;;;;;;;;;;;21.10;75.40;;;;;;5032834;28;1331;-67
2021/09/13 11:55:23;;;;;;;;;;;21.10;75.50;;;;;;5026631;28;1261;-67
2021/09/13 11:57:50;;;;;;;;;;;21.10;75.30;;;;;;5014001;28;1303;-66
2021/09/13 12:00:23;;;;;;;;;;;21.10;75.30;;;;;;5032239;28;1301;-67
2021/09/13 12:02:49;;;;;;;;;;;21.10;75.20;;;;;;5015777;28;1898;-67
2021/09/13 12:05:15;;;;;;;;;;;21.10;75.00;;;;;;5032308;28;1329;-67
2021/09/13 12:07:41;;;;;;;;;;;21.10;75.10;;;;;;5014173;28;1360;-67
2021/09/13 12:10:06;;;;;;;;;;;21.10;75.10;;;;;;5032161;28;1304;-67
2021/09/13 12:12:33;;;;;;;;;;;21.10;75.10;;;;;;5014894;28;1325;-67
2021/09/13 12:15:03;;;;;;;;;;;21.10;75.10;;;;;;5014162;28;1361;-67
2021/09/13 12:17:39;;;;;;;;;;;21.10;75.00;;;;;;5031639;28;1330;-67
2021/09/13 12:20:31;;;;;;;;;;;21.10;74.70;;;;;;5014321;28;1301;-67
2021/09/13 12:22:59;;;;;;;;;;;21.10;74.60;;;;;;5026552;28;1958;-66
2021/09/13 12:25:24;;;;;;;;;;;21.10;74.70;;;;;;5022742;28;1203;-67
2021/09/13 12:27:50;;;;;;;;;;;21.10;74.40;;;;;;4997231;28;1300;-66
2021/09/13 12:30:23;;;;;;;;;;;21.10;74.30;;;;;;5032213;28;1301;-66
2021/09/13 12:32:53;;;;;;;;;;;21.10;74.30;;;;;;5032566;28;1371;-67
2021/09/13 12:35:28;;;;;;;;;;;21.10;74.10;;;;;;5031667;28;1222;-67
2021/09/13 12:37:54;;;;;;;;;;;21.10;74.10;;;;;;5031311;28;1387;-67
2021/09/13 12:40:19;;;;;;;;;;;21.10;74.30;;;;;;5031788;28;1312;-67
2021/09/13 12:42:55;;;;;;;;;;;21.10;74.10;;;;;;5030559;28;1931;-68
2021/09/13 12:45:21;;;;;;;;;;;21.10;74.10;;;;;;5010495;28;1194;-68
2021/09/13 12:47:56;;;;;;;;;;;21.10;73.90;;;;;;5014375;28;1372;-67
2021/09/13 12:50:28;;;;;;;;;;;21.10;73.90;;;;;;5032274;28;1178;-67
2021/09/13 12:52:54;;;;;;;;;;;21.10;73.90;;;;;;5034133;28;1479;-66
2021/09/13 12:55:20;;;;;;;;;;;21.10;73.90;;;;;;5030778;28;1324;-68
2021/09/13 12:57:45;;;;;;;;;;;21.10;73.80;;;;;;5035506;28;1374;-69
2021/09/13 13:00:11;;;;;;;;;;;21.10;73.90;;;;;;5036022;28;1085;-68
2021/09/13 13:02:37;;;;;;;;;;;21.10;73.90;;;;;;5036147;28;1914;-69
2021/09/13 13:05:02;;;;;;;;;;;21.10;73.70;;;;;;5036562;28;1228;-69
2021/09/13 13:07:27;;;;;;;;;;;21.10;73.40;;;;;;5018021;28;1290;-69
2021/09/13 13:09:53;;;;;;;;;;;21.10;73.50;;;;;;5036045;28;1156;-67
2021/09/13 13:12:18;;;;;;;;;;;21.10;73.50;;;;;;5035846;28;1314;-67
2021/09/13 13:14:44;;;;;;;;;;;21.10;73.50;;;;;;5035772;28;1414;-67
2021/09/13 13:17:09;;;;;;;;;;;21.10;73.30;;;;;;5035317;28;1326;-67
2021/09/13 13:19:35;;;;;;;;;;;21.10;73.40;;;;;;5035825;28;1286;-68
2021/09/13 13:22:00;;;;;;;;;;;21.10;73.60;;;;;;5035585;28;1965;-69
2021/09/13 13:24:25;;;;;;;;;;;21.10;73.40;;;;;;5026949;28;1266;-69
2021/09/13 13:26:53;;;;;;;;;;;21.10;73.50;;;;;;5033718;28;1314;-70
2021/09/13 13:29:19;;;;;;;;;;;21.10;73.50;;;;;;5018287;28;1338;-69
2021/09/13 13:31:45;;;;;;;;;;;21.10;73.40;;;;;;5035520;28;1384;-67
2021/09/13 13:34:11;;;;;;;;;;;21.10;73.60;;;;;;5035534;28;1277;-67
2021/09/13 13:36:37;;;;;;;;;;;21.10;73.40;;;;;;5017518;28;1384;-67
2021/09/13 13:39:02;;;;;;;;;;;21.10;73.40;;;;;;5035376;28;1262;-69
2021/09/13 13:41:28;;;;;;;;;;;21.10;73.70;;;;;;5017623;28;1965;-69
2021/09/13 13:43:53;;;;;;;;;;;21.10;73.60;;;;;;5035076;28;1354;-69
2021/09/13 13:46:19;;;;;;;;;;;21.10;73.70;;;;;;5034745;28;1286;-69
2021/09/13 13:48:44;;;;;;;;;;;21.20;73.60;;;;;;5035382;28;1255;-69
2021/09/13 13:51:09;;;;;;;;;;;21.10;73.50;;;;;;5035144;28;1317;-68
2021/09/13 13:53:35;;;;;;;;;;;21.10;73.60;;;;;;5035160;28;1307;-68
2021/09/13 13:56:00;;;;;;;;;;;21.10;73.60;;;;;;5034576;28;1264;-67
2021/09/13 13:58:26;;;;;;;;;;;21.10;73.60;;;;;;5017241;28;1296;-67
2021/09/13 14:00:53;;;;;;;;;;;21.10;73.60;;;;;;5034935;28;1969;-68
2021/09/13 14:03:18;;;;;;;;;;;21.10;73.40;;;;;;5034832;28;1262;-68
2021/09/13 14:05:44;;;;;;;;;;;21.10;73.30;;;;;;5033677;28;1335;-68
2021/09/13 14:08:09;;;;;;;;;;;21.10;73.30;;;;;;5034922;28;1272;-67
2021/09/13 14:10:35;;;;;;;;;;;21.10;73.30;;;;;;5017067;28;1334;-67
2021/09/13 14:13:00;;;;;;;;;;;21.10;73.50;;;;;;5034826;28;1343;-67
2021/09/13 14:15:25;;;;;;;;;;;21.10;73.50;;;;;;5035005;28;1324;-68
2021/09/13 14:17:51;;;;;;;;;;;21.10;73.60;;;;;;5034451;28;1284;-67
2021/09/13 14:20:17;;;;;;;;;;;21.20;73.50;;;;;;5034543;28;1332;-67
2021/09/13 14:22:42;;;;;;;;;;;21.10;73.60;;;;;;5034611;28;1951;-67
2021/09/13 14:25:08;;;;;;;;;;;21.10;73.50;;;;;;5025121;28;1312;-68
2021/09/13 14:27:33;;;;;;;;;;;21.10;73.70;;;;;;5034347;28;1238;-68
2021/09/13 14:29:59;;;;;;;;;;;21.10;73.60;;;;;;5034423;28;1331;-68
2021/09/13 14:32:24;;;;;;;;;;;21.10;73.50;;;;;;5034383;28;1406;-67
2021/09/13 14:34:49;;;;;;;;;;;21.10;73.60;;;;;;5016626;28;1465;-68
2021/09/13 14:37:15;;;;;;;;;;;21.10;73.60;;;;;;5016607;28;1291;-67